Aeroporto :
LOGIN :

Iscrizione | Disclaimer

   EN    FR    IT 

 










Sommario :    VFR   VFR Marginale   IFR   IFR Intensivo   IFR Molto Intensivo
Visibilità : 
Base nubi : 
>= 8 km
>= 3000ft
5 / 8 km
1000 / 3000 ft
1500m / 5 km
500 / 1000 ft
800 / 1500m
200 / 500 ft
< 800m
< 200 ft
Simboli :   Temporali  Nebbia  Neve Forte  Precipitazioni Forti  Vento > 20 kt
SIGMETs :   Varie  Temporali  Ghiacco  Turbolenza  Onda orograficha  Ceneri Vulcaniche







- Altitudine del aeroporto : 33 ft
- Codice IATA : PLQ


EYPA - Palanga

ULTIMO METAR :
  • 190720Z 29005KT 230V010 9999 -SHRASN FEW013CB BKN032 02/00 Q1013 R19/2///95

METARs OBSOLETI :
  • 190650Z 30006KT 210V010 9999 SCT006 BKN049 02/00 Q1013 R19/2///95
  • 190620Z 28006KT 230V320 9999 BKN011 BKN035 02/01 Q1012 R19/2///95
  • 190550Z 30007KT 260V010 9999 -SHRASN BKN011CB 02/00 Q1012 R19/2///95
  • 190520Z 29006KT 230V340 9999 -SHRA SCT010CB BKN034 02/00 Q1011 R19/2///95
  • 190450Z 28005KT 240V340 9999 BKN013 BKN059 02/00 Q1011 R19/2///95

TAF TAF EYPA
Valido dal 19 a 06 ore il 20 a 06 ore UTC


190502Z 1906/2006 27010G20KT 8000 BKN020
TEMPO 1906/1912 5000 SHRASN BKN005 BKN015CB
BECMG 1918/1920 VRB02KT SCT030
TEMPO 2000/2006 SCT005
Nessun NOTAM noto per questo aeroporto.



MetMap, La meteo Aeronautica in un colpo d'occhio ! - Copyright ORBIFLY Dicembre 2007 - Disclaimer

ORBIFLY MET'MAP TEAM :

Programmazione e sviluppo : Alexandra Zaïnal
Concezione e sviluppo : Baudouin d'Aumeries
Co-Programmazione e sviluppo : Marc-Olivier Méhu
Supporto tecnico e logistico : Manuel Goepfert
Aiuto per la traduzione : Arnaldo La Scala

Contatto : metmap@orbifly.com




FONTI E CREDITI :

   NOAA